createdAt,value
2019-01-13T00:00:18.114Z,1002.01
2019-01-13T00:01:18.495Z,1001.97
2019-01-13T00:02:18.617Z,1001.93
2019-01-13T00:03:18.941Z,1002.04
2019-01-13T00:04:19.221Z,1001.94
2019-01-13T00:05:19.487Z,1002.03
2019-01-13T00:06:19.882Z,1002.07
2019-01-13T00:07:19.974Z,1001.99
2019-01-13T00:08:19.993Z,1002.02
2019-01-13T00:09:20.293Z,1002.01
2019-01-13T00:10:20.539Z,1001.98
2019-01-13T00:11:20.844Z,1001.92
2019-01-13T00:12:21.167Z,1001.85
2019-01-13T00:13:21.600Z,1001.88
2019-01-13T00:14:22.004Z,1001.91
2019-01-13T00:15:22.327Z,1001.85
2019-01-13T00:16:22.811Z,1001.83
2019-01-13T00:17:22.621Z,1001.82
2019-01-13T00:18:23.057Z,1001.93
2019-01-13T00:19:23.637Z,1001.87
2019-01-13T00:20:23.984Z,1001.80
2019-01-13T00:21:24.399Z,1001.85
2019-01-13T00:22:24.765Z,1001.95
2019-01-13T00:23:25.267Z,1001.88
2019-01-13T00:24:25.971Z,1001.99
2019-01-13T00:25:26.116Z,1001.84
2019-01-13T00:26:26.311Z,1001.81
2019-01-13T00:27:26.434Z,1001.87
2019-01-13T00:28:26.552Z,1001.86
2019-01-13T00:29:26.727Z,1001.88
2019-01-13T00:30:26.954Z,1001.86
2019-01-13T00:31:27.221Z,1001.96
2019-01-13T00:32:27.337Z,1002.06
2019-01-13T00:33:27.467Z,1002.04
2019-01-13T00:34:27.765Z,1002.02
2019-01-13T00:35:27.967Z,1002.06
2019-01-13T00:36:28.204Z,1002.08
2019-01-13T00:37:28.250Z,1002.06
2019-01-13T00:38:28.291Z,1002.02
2019-01-13T00:39:28.321Z,1001.94
2019-01-13T00:40:28.557Z,1002.14
2019-01-13T00:41:28.604Z,1002.06
2019-01-13T00:42:28.700Z,1002.08
2019-01-13T00:43:28.792Z,1002.03
2019-01-13T00:44:28.924Z,1002.05
2019-01-13T00:45:29.276Z,1002.09
2019-01-13T00:46:29.356Z,1002.10
2019-01-13T00:47:29.165Z,1001.99
2019-01-13T00:48:29.811Z,1002.05
2019-01-13T00:49:29.906Z,1001.92
2019-01-13T00:50:30.091Z,1001.96
2019-01-13T00:51:30.259Z,1001.96
2019-01-13T00:52:30.375Z,1002.01
2019-01-13T00:53:30.642Z,1002.14
2019-01-13T00:54:30.656Z,1002.08
2019-01-13T00:55:30.918Z,1002.11
2019-01-13T00:56:30.991Z,1002.10
2019-01-13T00:57:31.043Z,1002.05
2019-01-13T00:58:31.174Z,1002.16
2019-01-13T00:59:31.216Z,1002.20
2019-01-13T01:00:31.836Z,1002.13
2019-01-13T01:01:31.705Z,1002.16
2019-01-13T01:02:31.981Z,1002.19
2019-01-13T01:03:32.249Z,1002.16
2019-01-13T01:04:32.652Z,1002.23
2019-01-13T01:06:33.127Z,1002.23
2019-01-13T01:07:33.380Z,1002.30
2019-01-13T01:08:33.627Z,1002.37
2019-01-13T01:09:33.973Z,1002.36
2019-01-13T01:10:34.315Z,1002.41
2019-01-13T01:11:34.778Z,1002.39
2019-01-13T01:12:34.866Z,1002.38
2019-01-13T01:13:35.207Z,1002.35
2019-01-13T01:14:35.702Z,1002.41
2019-01-13T01:15:36.215Z,1002.32
2019-01-13T01:16:36.004Z,1002.37
2019-01-13T01:17:36.283Z,1002.31
2019-01-13T01:18:36.717Z,1002.41
2019-01-13T01:19:36.988Z,1002.35
2019-01-13T01:20:37.467Z,1002.31
2019-01-13T01:21:37.831Z,1002.31
2019-01-13T01:22:38.090Z,1002.35
2019-01-13T01:23:38.580Z,1002.35
2019-01-13T01:24:38.840Z,1002.31
2019-01-13T01:25:39.109Z,1002.36
2019-01-13T01:26:39.424Z,1002.33
2019-01-13T01:27:39.753Z,1002.23
2019-01-13T01:28:40.247Z,1002.33
2019-01-13T01:29:40.847Z,1002.32
2019-01-13T01:30:40.860Z,1002.30
2019-01-13T01:31:40.933Z,1002.32
2019-01-13T01:32:40.968Z,1002.24
2019-01-13T01:33:41.064Z,1002.27
2019-01-13T01:34:41.156Z,1002.26
2019-01-13T01:35:41.271Z,1002.24
2019-01-13T01:36:41.370Z,1002.24
2019-01-13T01:37:41.525Z,1002.18
2019-01-13T01:38:41.687Z,1002.32
2019-01-13T01:39:41.945Z,1002.32
2019-01-13T01:40:42.144Z,1002.27
2019-01-13T01:41:42.322Z,1002.32
2019-01-13T01:42:42.431Z,1002.29
2019-01-13T01:43:42.540Z,1002.27
2019-01-13T01:44:42.655Z,1002.26
2019-01-13T01:45:42.762Z,1002.29
2019-01-13T01:46:42.895Z,1002.33
2019-01-13T01:47:43.028Z,1002.29
2019-01-13T01:48:43.300Z,1002.27
2019-01-13T01:49:43.345Z,1002.29
2019-01-13T01:50:43.425Z,1002.22
2019-01-13T01:51:43.548Z,1002.27
2019-01-13T01:52:43.595Z,1002.25
2019-01-13T01:53:43.701Z,1002.24
2019-01-13T01:54:43.852Z,1002.14
2019-01-13T01:55:43.931Z,1002.18
2019-01-13T01:56:44.055Z,1002.19
2019-01-13T01:57:44.133Z,1002.11
2019-01-13T01:58:44.271Z,1002.14
2019-01-13T01:59:44.387Z,1002.13
2019-01-13T02:00:44.455Z,1002.15
2019-01-13T02:01:44.517Z,1002.07
2019-01-13T02:02:44.554Z,1002.11
2019-01-13T02:03:44.617Z,1002.06
2019-01-13T02:04:44.668Z,1002.09
2019-01-13T02:05:44.799Z,1002.20
2019-01-13T02:06:44.782Z,1002.20
2019-01-13T02:07:44.863Z,1002.16
2019-01-13T02:08:44.716Z,1002.27
2019-01-13T02:09:45.288Z,1002.20
2019-01-13T02:10:45.338Z,1002.27
2019-01-13T02:11:45.392Z,1002.32
2019-01-13T02:12:45.492Z,1002.32
2019-01-13T02:13:45.844Z,1002.26
2019-01-13T02:14:45.903Z,1002.35
2019-01-13T02:15:46.002Z,1002.22
2019-01-13T02:16:46.014Z,1002.26
2019-01-13T02:17:45.962Z,1002.22
2019-01-13T02:18:46.345Z,1002.23
2019-01-13T02:19:46.735Z,1002.29
2019-01-13T02:20:47.061Z,1002.20
2019-01-13T02:21:47.374Z,1002.24
2019-01-13T02:22:47.622Z,1002.16
2019-01-13T02:23:47.994Z,1002.24
2019-01-13T02:24:48.305Z,1002.13
2019-01-13T02:25:48.661Z,1002.14
2019-01-13T02:26:49.028Z,1002.17
2019-01-13T02:27:49.339Z,1002.22
2019-01-13T02:28:49.815Z,1002.15
2019-01-13T02:29:50.139Z,1002.20
2019-01-13T02:30:50.517Z,1002.25
2019-01-13T02:31:50.778Z,1002.27
2019-01-13T02:32:51.029Z,1002.13
2019-01-13T02:33:51.467Z,1002.20
2019-01-13T02:34:51.907Z,1002.19
2019-01-13T02:35:52.181Z,1002.27
2019-01-13T02:36:52.607Z,1002.20
2019-01-13T02:37:53.016Z,1002.31
2019-01-13T02:38:53.298Z,1002.16
2019-01-13T02:39:53.577Z,1002.18
2019-01-13T02:40:54.077Z,1002.20
2019-01-13T02:41:53.847Z,1002.19
2019-01-13T02:42:54.343Z,1002.15
2019-01-13T02:43:54.847Z,1002.25
2019-01-13T02:44:55.406Z,1002.19
2019-01-13T02:45:55.908Z,1002.27
2019-01-13T02:46:55.984Z,1002.25
2019-01-13T02:47:56.086Z,1002.18
2019-01-13T02:48:56.208Z,1002.21
2019-01-13T02:49:56.291Z,1002.11
2019-01-13T02:50:56.390Z,1002.18
2019-01-13T02:51:56.475Z,1002.17
2019-01-13T02:52:56.578Z,1002.09
2019-01-13T02:53:56.683Z,1002.09
2019-01-13T02:54:56.791Z,1002.18
2019-01-13T02:55:56.942Z,1002.09
2019-01-13T02:56:57.049Z,1002.11
2019-01-13T02:57:57.165Z,1002.23
2019-01-13T02:58:57.304Z,1002.25
2019-01-13T02:59:57.400Z,1002.11
2019-01-13T03:00:57.573Z,1002.17
2019-01-13T03:01:57.598Z,1002.03
2019-01-13T03:02:57.713Z,1002.13
2019-01-13T03:03:57.828Z,1002.05
2019-01-13T03:04:57.884Z,1002.11
2019-01-13T03:05:58.003Z,1002.07
2019-01-13T03:06:58.122Z,1002.08
2019-01-13T03:07:58.212Z,1001.95
2019-01-13T03:08:58.289Z,1001.96
2019-01-13T03:09:58.333Z,1001.97
2019-01-13T03:10:58.619Z,1001.91
2019-01-13T03:11:58.698Z,1001.88
2019-01-13T03:12:58.757Z,1001.93
2019-01-13T03:13:58.880Z,1001.89
2019-01-13T03:14:58.962Z,1001.81
2019-01-13T03:15:59.053Z,1001.85
2019-01-13T03:16:59.144Z,1001.85
2019-01-13T03:17:59.240Z,1001.83
2019-01-13T03:18:59.310Z,1001.69
2019-01-13T03:19:59.359Z,1001.71
2019-01-13T03:20:59.449Z,1001.69
2019-01-13T03:21:59.520Z,1001.64
2019-01-13T03:22:59.577Z,1001.74
2019-01-13T03:23:59.628Z,1001.76
2019-01-13T03:24:59.689Z,1001.80
2019-01-13T03:25:59.734Z,1001.71
2019-01-13T03:26:59.805Z,1001.71
2019-01-13T03:27:59.892Z,1001.82
2019-01-13T03:28:59.928Z,1001.82
2019-01-13T03:30:00.019Z,1001.83
2019-01-13T03:31:11.123Z,1001.69
2019-01-13T03:32:00.137Z,1001.62
2019-01-13T03:33:00.238Z,1001.65
2019-01-13T03:34:00.317Z,1001.57
2019-01-13T03:36:00.371Z,1001.55
2019-01-13T03:37:00.478Z,1001.47
2019-01-13T03:38:00.575Z,1001.47
2019-01-13T03:39:00.661Z,1001.47
2019-01-13T03:40:00.795Z,1001.46
2019-01-13T03:41:01.138Z,1001.48
2019-01-13T03:42:01.130Z,1001.52
2019-01-13T03:43:01.236Z,1001.36
2019-01-13T03:44:01.290Z,1001.40
2019-01-13T03:45:01.146Z,1001.49
2019-01-13T03:46:02.014Z,1001.49
2019-01-13T03:47:02.006Z,1001.40
2019-01-13T03:48:02.309Z,1001.43
2019-01-13T03:49:02.850Z,1001.48
2019-01-13T03:50:02.942Z,1001.53
2019-01-13T03:51:02.894Z,1001.57
2019-01-13T03:52:02.642Z,1001.51
2019-01-13T03:53:02.909Z,1001.50
2019-01-13T03:54:03.472Z,1001.56
2019-01-13T03:55:03.546Z,1001.49
2019-01-13T03:56:03.741Z,1001.53
2019-01-13T03:57:04.189Z,1001.56
2019-01-13T03:58:04.265Z,1001.53
2019-01-13T03:59:04.254Z,1001.52
2019-01-13T04:00:04.643Z,1001.43
2019-01-13T04:01:05.028Z,1001.42
2019-01-13T04:02:05.710Z,1001.48
2019-01-13T04:03:05.573Z,1001.46
2019-01-13T04:04:05.866Z,1001.42
2019-01-13T04:05:06.283Z,1001.40
2019-01-13T04:06:06.737Z,1001.48
2019-01-13T04:07:06.981Z,1001.49
2019-01-13T04:08:07.239Z,1001.44
2019-01-13T04:09:07.496Z,1001.50
2019-01-13T04:10:07.743Z,1001.52
2019-01-13T04:11:07.980Z,1001.61
2019-01-13T04:12:08.468Z,1001.63
2019-01-13T04:13:08.752Z,1001.53
2019-01-13T04:14:09.105Z,1001.50
2019-01-13T04:15:09.354Z,1001.45
2019-01-13T04:16:09.838Z,1001.53
2019-01-13T04:17:10.245Z,1001.59
2019-01-13T04:18:10.892Z,1001.58
2019-01-13T04:19:11.005Z,1001.57
2019-01-13T04:20:11.214Z,1001.63
2019-01-13T04:21:11.335Z,1001.50
2019-01-13T04:22:11.445Z,1001.53
2019-01-13T04:23:11.585Z,1001.55
2019-01-13T04:24:11.802Z,1001.60
2019-01-13T04:25:12.177Z,1001.60
2019-01-13T04:26:12.386Z,1001.56
2019-01-13T04:27:12.516Z,1001.56
2019-01-13T04:28:12.649Z,1001.58
2019-01-13T04:29:12.767Z,1001.50
2019-01-13T04:30:12.926Z,1001.43
2019-01-13T04:31:13.076Z,1001.48
2019-01-13T04:32:13.153Z,1001.41
2019-01-13T04:33:13.225Z,1001.23
2019-01-13T04:34:13.351Z,1001.31
2019-01-13T04:35:13.431Z,1001.31
2019-01-13T04:36:13.488Z,1001.19
2019-01-13T04:37:13.520Z,1001.21
2019-01-13T04:38:13.575Z,1001.18
2019-01-13T04:39:13.629Z,1001.10
2019-01-13T04:40:13.740Z,1001.13
2019-01-13T04:41:13.903Z,1001.11
2019-01-13T04:42:13.999Z,1001.14
2019-01-13T04:43:14.075Z,1001.11
2019-01-13T04:44:14.155Z,1001.12
2019-01-13T04:45:14.282Z,1001.04
2019-01-13T04:46:14.359Z,1001.14
2019-01-13T04:47:14.434Z,1001.13
2019-01-13T04:48:14.507Z,1001.04
2019-01-13T04:49:14.558Z,1000.97
2019-01-13T04:50:14.679Z,1001.05
2019-01-13T04:51:14.736Z,1001.11
2019-01-13T04:52:14.800Z,1001.11
2019-01-13T04:53:14.848Z,1001.06
2019-01-13T04:54:14.919Z,1001.08
2019-01-13T04:55:15.017Z,1001.06
2019-01-13T04:56:15.117Z,1000.99
2019-01-13T04:57:15.195Z,1001.00
2019-01-13T04:58:15.245Z,1001.00
2019-01-13T04:59:15.318Z,1000.95
2019-01-13T05:00:15.429Z,1000.93
2019-01-13T05:01:15.682Z,1000.91
2019-01-13T05:02:15.795Z,1000.85
2019-01-13T05:03:15.877Z,1000.82
2019-01-13T05:04:15.961Z,1000.84
2019-01-13T05:05:15.939Z,1000.88
2019-01-13T05:06:16.602Z,1000.83
2019-01-13T05:07:16.521Z,1000.83
2019-01-13T05:08:16.775Z,1000.81
2019-01-13T05:09:17.522Z,1000.77
2019-01-13T05:10:17.610Z,1000.74
2019-01-13T05:11:17.875Z,1000.74
2019-01-13T05:12:17.652Z,1000.69
2019-01-13T05:13:17.890Z,1000.63
2019-01-13T05:14:18.222Z,1000.59
2019-01-13T05:15:18.773Z,1000.47
2019-01-13T05:16:18.535Z,1000.50
2019-01-13T05:17:18.806Z,1000.55
2019-01-13T05:18:19.085Z,1000.49
2019-01-13T05:19:19.369Z,1000.51
2019-01-13T05:20:19.882Z,1000.45
2019-01-13T05:21:20.111Z,1000.43
2019-01-13T05:22:20.383Z,1000.49
2019-01-13T05:23:20.742Z,1000.51
2019-01-13T05:24:20.983Z,1000.58
2019-01-13T05:25:21.251Z,1000.58
2019-01-13T05:26:21.714Z,1000.44
2019-01-13T05:27:22.113Z,1000.50
2019-01-13T05:28:22.392Z,1000.49
2019-01-13T05:29:22.746Z,1000.43
2019-01-13T05:30:23.018Z,1000.35
2019-01-13T05:31:23.258Z,1000.34
2019-01-13T05:32:23.650Z,1000.40
2019-01-13T05:33:23.913Z,1000.53
2019-01-13T05:34:24.185Z,1000.40
2019-01-13T05:35:24.545Z,1000.41
2019-01-13T05:36:24.821Z,1000.38
2019-01-13T05:37:25.253Z,1000.45
2019-01-13T05:38:25.862Z,1000.42
2019-01-13T05:39:25.864Z,1000.40
2019-01-13T05:40:25.963Z,1000.39
2019-01-13T05:41:26.062Z,1000.41
2019-01-13T05:42:26.197Z,1000.39
2019-01-13T05:44:26.315Z,1000.42
2019-01-13T05:45:26.443Z,1000.45
2019-01-13T05:46:26.591Z,1000.46
2019-01-13T05:47:26.971Z,1000.53
2019-01-13T05:48:27.075Z,1000.56
2019-01-13T05:49:27.196Z,1000.50
2019-01-13T05:50:27.324Z,1000.51
2019-01-13T05:51:27.436Z,1000.43
2019-01-13T05:52:27.598Z,1000.43
2019-01-13T05:53:27.714Z,1000.36
2019-01-13T05:54:27.823Z,1000.42
2019-01-13T05:55:27.931Z,1000.37
2019-01-13T05:56:28.031Z,1000.36
2019-01-13T05:57:28.077Z,1000.34
2019-01-13T05:58:28.189Z,1000.26
2019-01-13T05:59:28.252Z,1000.22
2019-01-13T06:00:28.315Z,1000.26
2019-01-13T06:01:28.473Z,1000.28
2019-01-13T06:02:28.547Z,1000.36
2019-01-13T06:03:28.628Z,1000.31
2019-01-13T06:04:28.705Z,1000.21
2019-01-13T06:05:28.823Z,1000.24
2019-01-13T06:06:28.909Z,1000.18
2019-01-13T06:07:29.007Z,1000.06
2019-01-13T06:08:29.102Z,1000.07
2019-01-13T06:09:29.173Z,1000.04
2019-01-13T06:10:29.267Z,999.98
2019-01-13T06:11:29.302Z,999.98
2019-01-13T06:12:29.359Z,999.87
2019-01-13T06:13:29.433Z,999.93
2019-01-13T06:14:29.531Z,999.90
2019-01-13T06:15:29.525Z,999.95
2019-01-13T06:16:30.076Z,999.93
2019-01-13T06:17:30.153Z,999.90
2019-01-13T06:18:30.207Z,999.89
2019-01-13T06:19:30.269Z,999.78
2019-01-13T06:20:30.340Z,999.77
2019-01-13T06:21:30.407Z,999.74
2019-01-13T06:22:30.468Z,999.66
2019-01-13T06:23:30.533Z,999.61
2019-01-13T06:24:30.608Z,999.65
2019-01-13T06:25:30.679Z,999.60
2019-01-13T06:26:30.758Z,999.59
2019-01-13T06:27:30.833Z,999.68
2019-01-13T06:28:30.881Z,999.67
2019-01-13T06:29:30.956Z,999.59
2019-01-13T06:30:30.953Z,999.52
2019-01-13T06:31:31.712Z,999.48
2019-01-13T06:32:31.843Z,999.44
2019-01-13T06:33:31.642Z,999.52
2019-01-13T06:34:31.889Z,999.54
2019-01-13T06:35:32.193Z,999.56
2019-01-13T06:36:32.564Z,999.61
2019-01-13T06:37:32.856Z,999.65
2019-01-13T06:38:33.115Z,999.66
2019-01-13T06:39:33.704Z,999.67
2019-01-13T06:40:33.569Z,999.72
2019-01-13T06:41:33.941Z,999.61
2019-01-13T06:42:34.413Z,999.62
2019-01-13T06:43:34.695Z,999.57
2019-01-13T06:44:34.992Z,999.63
2019-01-13T06:45:35.284Z,999.68
2019-01-13T06:46:35.752Z,999.55
2019-01-13T06:47:35.708Z,999.57
2019-01-13T06:48:35.954Z,999.58
2019-01-13T06:49:36.314Z,999.49
2019-01-13T06:50:36.756Z,999.53
2019-01-13T06:51:37.022Z,999.46
2019-01-13T06:52:37.336Z,999.47
2019-01-13T06:54:37.635Z,999.48
2019-01-13T06:55:37.945Z,999.51
2019-01-13T06:56:38.194Z,999.41
2019-01-13T06:57:38.618Z,999.44
2019-01-13T06:58:38.888Z,999.47
2019-01-13T06:59:39.210Z,999.34
2019-01-13T07:00:39.462Z,999.47
2019-01-13T07:01:39.727Z,999.43
2019-01-13T07:02:40.119Z,999.43
2019-01-13T07:03:40.768Z,999.53
2019-01-13T07:04:40.912Z,999.44
2019-01-13T07:05:40.974Z,999.51
2019-01-13T07:06:41.055Z,999.48
2019-01-13T07:07:41.187Z,999.46
2019-01-13T07:08:41.343Z,999.46
2019-01-13T07:09:41.560Z,999.43
2019-01-13T07:10:41.679Z,999.48
2019-01-13T07:11:41.845Z,999.53
2019-01-13T07:12:41.959Z,999.37
2019-01-13T07:13:42.075Z,999.34
2019-01-13T07:14:42.208Z,999.37
2019-01-13T07:15:42.308Z,999.40
2019-01-13T07:16:42.451Z,999.42
2019-01-13T07:17:45.175Z,999.42
2019-01-13T07:18:42.851Z,999.43
2019-01-13T07:19:42.999Z,999.46
2019-01-13T07:20:43.027Z,999.43
2019-01-13T07:21:43.087Z,999.48
2019-01-13T07:22:43.211Z,999.51
2019-01-13T07:23:43.296Z,999.46
2019-01-13T07:24:43.357Z,999.51
2019-01-13T07:25:43.524Z,999.52
2019-01-13T07:26:43.664Z,999.52
2019-01-13T07:27:43.774Z,999.49
2019-01-13T07:28:43.913Z,999.51
2019-01-13T07:29:43.960Z,999.49
2019-01-13T07:30:44.104Z,999.52
2019-01-13T07:31:44.219Z,999.61
2019-01-13T07:32:44.304Z,999.60
2019-01-13T07:33:44.370Z,999.60
2019-01-13T07:34:44.434Z,999.63
2019-01-13T07:35:44.507Z,999.63
2019-01-13T07:36:44.572Z,999.68
2019-01-13T07:37:44.626Z,999.62
2019-01-13T07:38:44.697Z,999.39
2019-01-13T07:39:44.763Z,999.63
2019-01-13T07:40:44.797Z,999.59
2019-01-13T07:41:44.833Z,999.56
2019-01-13T07:42:45.008Z,999.53
2019-01-13T07:43:45.134Z,999.54
2019-01-13T07:44:45.269Z,999.50
2019-01-13T07:45:45.312Z,999.53
2019-01-13T07:46:45.376Z,999.52
2019-01-13T07:47:45.694Z,999.44
2019-01-13T07:48:45.748Z,999.45
2019-01-13T07:49:45.780Z,999.46
2019-01-13T07:50:45.854Z,999.41
2019-01-13T07:51:45.953Z,999.41
2019-01-13T07:52:46.146Z,999.35
2019-01-13T07:53:46.092Z,999.31
2019-01-13T07:54:46.443Z,999.32
2019-01-13T07:55:46.776Z,999.40
2019-01-13T07:56:47.023Z,999.36
2019-01-13T07:57:47.369Z,999.31
2019-01-13T07:58:47.920Z,999.18
2019-01-13T07:59:47.694Z,999.31
2019-01-13T08:00:48.076Z,999.24
2019-01-13T08:01:48.546Z,999.13
2019-01-13T08:02:48.895Z,999.21
2019-01-13T08:03:49.372Z,999.21
2019-01-13T08:04:49.683Z,999.12
2019-01-13T08:05:50.040Z,999.15
2019-01-13T08:06:50.359Z,999.09
2019-01-13T08:07:50.813Z,999.10
2019-01-13T08:08:50.582Z,998.97
2019-01-13T08:09:50.803Z,999.04
2019-01-13T08:10:51.054Z,998.99
2019-01-13T08:11:51.531Z,999.04
2019-01-13T08:12:51.844Z,999.04
2019-01-13T08:13:52.343Z,999.10
2019-01-13T08:14:52.129Z,999.13
2019-01-13T08:15:52.371Z,999.03
2019-01-13T08:16:52.906Z,999.10
2019-01-13T08:17:52.755Z,998.93
2019-01-13T08:18:53.101Z,999.08
2019-01-13T08:19:53.551Z,998.91
2019-01-13T08:20:53.967Z,999.00
2019-01-13T08:21:54.253Z,999.02
2019-01-13T08:22:54.705Z,998.99
2019-01-13T08:23:55.142Z,998.97
2019-01-13T08:24:55.660Z,998.99
2019-01-13T08:25:55.796Z,998.99
2019-01-13T08:26:55.964Z,998.99
2019-01-13T08:27:56.046Z,998.99
2019-01-13T08:28:56.116Z,999.03
2019-01-13T08:29:56.204Z,998.97
2019-01-13T08:30:56.291Z,998.91
2019-01-13T08:31:56.401Z,998.93
2019-01-13T08:32:56.515Z,998.89
2019-01-13T08:33:56.632Z,998.93
2019-01-13T08:34:56.779Z,998.92
2019-01-13T08:35:56.911Z,998.93
2019-01-13T08:36:57.012Z,998.80
2019-01-13T08:37:57.186Z,998.85
2019-01-13T08:38:57.399Z,998.76
2019-01-13T08:39:57.546Z,998.83
2019-01-13T08:40:57.651Z,998.79
2019-01-13T08:41:57.761Z,998.76
2019-01-13T08:42:57.869Z,998.74
2019-01-13T08:43:57.960Z,998.71
2019-01-13T08:44:58.105Z,998.65
2019-01-13T08:45:58.182Z,998.73
2019-01-13T08:46:58.425Z,998.57
2019-01-13T08:47:58.462Z,998.55
2019-01-13T08:48:58.584Z,998.59
2019-01-13T08:49:58.640Z,998.60
2019-01-13T08:50:58.747Z,998.58
2019-01-13T08:51:58.838Z,998.55
2019-01-13T08:52:58.887Z,998.54
2019-01-13T08:53:59.049Z,998.55
2019-01-13T08:54:59.165Z,998.48
2019-01-13T08:55:59.284Z,998.54
2019-01-13T08:56:59.485Z,998.51
2019-01-13T08:57:59.584Z,998.46
2019-01-13T08:58:59.687Z,998.41
2019-01-13T08:59:59.896Z,998.46
2019-01-13T09:01:00.222Z,998.44
2019-01-13T09:02:00.292Z,998.44
2019-01-13T09:03:00.377Z,998.41
2019-01-13T09:04:00.603Z,998.36
2019-01-13T09:05:00.690Z,998.40
2019-01-13T09:06:01.009Z,998.24
2019-01-13T09:07:01.059Z,998.28
2019-01-13T09:08:01.169Z,998.22
2019-01-13T09:09:01.466Z,998.30
2019-01-13T09:10:01.988Z,998.23
2019-01-13T09:11:02.052Z,998.17
2019-01-13T09:12:02.127Z,998.08
2019-01-13T09:13:02.251Z,998.13
2019-01-13T09:14:02.329Z,998.09
2019-01-13T09:15:02.427Z,998.09
2019-01-13T09:16:02.547Z,998.05
2019-01-13T09:17:03.089Z,998.03
2019-01-13T09:18:03.160Z,997.97
2019-01-13T09:19:03.223Z,998.00
2019-01-13T09:20:03.192Z,997.89
2019-01-13T09:21:03.597Z,997.88
2019-01-13T09:22:03.661Z,997.94
2019-01-13T09:23:03.576Z,997.89
2019-01-13T09:24:04.145Z,997.98
2019-01-13T09:25:04.251Z,997.90
2019-01-13T09:26:04.169Z,997.89
2019-01-13T09:27:04.703Z,997.97
2019-01-13T09:28:04.884Z,997.93
2019-01-13T09:29:05.135Z,997.89
2019-01-13T09:30:05.075Z,997.94
2019-01-13T09:31:05.247Z,998.00
2019-01-13T09:32:05.556Z,997.87
2019-01-13T09:33:05.838Z,997.91
2019-01-13T09:34:06.226Z,997.79
2019-01-13T09:35:06.649Z,997.71
2019-01-13T09:36:07.040Z,997.71
2019-01-13T09:37:07.382Z,997.72
2019-01-13T09:38:07.716Z,997.71
2019-01-13T09:39:08.080Z,997.68
2019-01-13T09:40:08.510Z,997.68
2019-01-13T09:41:08.657Z,997.64
2019-01-13T09:42:09.107Z,997.63
2019-01-13T09:43:09.506Z,997.63
2019-01-13T09:44:09.758Z,997.61
2019-01-13T09:45:10.260Z,997.66
2019-01-13T09:46:10.856Z,997.67
2019-01-13T09:47:11.016Z,997.64
2019-01-13T09:48:11.193Z,997.58
2019-01-13T09:49:11.324Z,997.56
2019-01-13T09:50:11.474Z,997.53
2019-01-13T09:51:11.766Z,997.52
2019-01-13T09:52:11.916Z,997.52
2019-01-13T09:53:12.047Z,997.50
2019-01-13T09:54:12.161Z,997.50
2019-01-13T09:55:12.288Z,997.49
2019-01-13T09:56:12.811Z,997.46
2019-01-13T09:57:12.994Z,997.43
2019-01-13T09:58:13.078Z,997.41
2019-01-13T09:59:13.151Z,997.38
2019-01-13T10:00:13.266Z,997.38
2019-01-13T10:01:13.398Z,997.36
2019-01-13T10:02:13.429Z,997.35
2019-01-13T10:03:13.484Z,997.33
2019-01-13T10:04:13.556Z,997.29
2019-01-13T10:05:13.680Z,997.24
2019-01-13T10:06:13.863Z,997.20
2019-01-13T10:07:14.004Z,997.17
2019-01-13T10:08:14.088Z,997.14
2019-01-13T10:09:14.174Z,997.11
2019-01-13T10:10:14.283Z,997.09
2019-01-13T10:11:14.369Z,997.05
2019-01-13T10:12:14.436Z,997.00
2019-01-13T10:13:14.494Z,996.98
2019-01-13T10:14:14.527Z,996.96
2019-01-13T10:15:14.630Z,996.94
2019-01-13T10:16:14.952Z,996.92
2019-01-13T10:17:15.030Z,996.89
2019-01-13T10:18:15.077Z,996.84
2019-01-13T10:19:15.122Z,996.81
2019-01-13T10:20:15.211Z,996.77
2019-01-13T10:21:15.306Z,996.73
2019-01-13T10:22:15.514Z,996.66
2019-01-13T10:23:15.620Z,996.67
2019-01-13T10:24:15.705Z,996.65
2019-01-13T10:25:15.788Z,996.66
2019-01-13T10:26:15.844Z,996.66
2019-01-13T10:27:15.903Z,996.64
2019-01-13T10:28:15.897Z,996.63
2019-01-13T10:29:16.395Z,996.61
2019-01-13T10:30:16.395Z,996.60
2019-01-13T10:31:16.514Z,996.58
2019-01-13T10:32:16.932Z,996.56
2019-01-13T10:33:17.330Z,996.58
2019-01-13T10:34:17.830Z,996.57
2019-01-13T10:35:17.894Z,996.54
2019-01-13T10:36:17.828Z,996.53
2019-01-13T10:37:18.165Z,996.50
2019-01-13T10:38:18.562Z,996.47
2019-01-13T10:39:18.828Z,996.48
2019-01-13T10:40:19.086Z,996.46
2019-01-13T10:41:19.266Z,996.42
2019-01-13T10:42:19.613Z,996.39
2019-01-13T10:43:19.875Z,996.35
2019-01-13T10:44:20.336Z,996.33
2019-01-13T10:45:20.851Z,996.31
2019-01-13T10:46:20.684Z,996.26
2019-01-13T10:47:21.013Z,996.23
2019-01-13T10:48:21.250Z,996.20
2019-01-13T10:49:30.103Z,996.16
2019-01-13T10:50:21.727Z,996.13
2019-01-13T10:51:21.869Z,996.09
2019-01-13T10:52:25.199Z,996.07
2019-01-13T10:53:22.483Z,996.00
2019-01-13T10:54:22.745Z,996.01
2019-01-13T10:55:23.004Z,996.01
2019-01-13T10:56:23.328Z,995.99
2019-01-13T10:57:23.784Z,995.96
2019-01-13T10:58:24.152Z,995.95
2019-01-13T10:59:24.418Z,995.90
2019-01-13T11:00:24.762Z,995.86
2019-01-13T11:01:25.123Z,995.83
2019-01-13T11:02:25.729Z,995.81
2019-01-13T11:03:25.824Z,995.75
2019-01-13T11:04:25.924Z,995.80
2019-01-13T11:05:26.006Z,995.88
2019-01-13T11:06:26.103Z,995.84
2019-01-13T11:07:26.242Z,995.85
2019-01-13T11:08:26.365Z,995.82
2019-01-13T11:09:26.452Z,995.77
2019-01-13T11:10:26.560Z,995.74
2019-01-13T11:11:26.693Z,995.72
2019-01-13T11:12:26.826Z,995.71
2019-01-13T11:13:27.013Z,995.69
2019-01-13T11:14:27.116Z,995.70
2019-01-13T11:15:27.259Z,995.84
2019-01-13T11:16:27.376Z,995.80
2019-01-13T11:17:27.524Z,995.72
2019-01-13T11:18:27.714Z,995.72
2019-01-13T11:19:27.835Z,995.63
2019-01-13T11:20:27.939Z,995.57
2019-01-13T11:21:28.034Z,995.62
2019-01-13T11:22:28.138Z,995.62
2019-01-13T11:23:28.204Z,995.59
2019-01-13T11:24:28.312Z,995.50
2019-01-13T11:25:28.366Z,995.50
2019-01-13T11:26:28.387Z,995.54
2019-01-13T11:27:28.463Z,995.47
2019-01-13T11:28:28.537Z,995.41
2019-01-13T11:29:32.641Z,995.51
2019-01-13T11:30:28.758Z,995.55
2019-01-13T11:31:28.874Z,995.55
2019-01-13T11:32:28.983Z,995.58
2019-01-13T11:33:29.068Z,995.68
2019-01-13T11:34:29.171Z,995.73
2019-01-13T11:35:29.363Z,995.76
2019-01-13T11:36:29.430Z,995.48
2019-01-13T11:37:29.507Z,995.40
2019-01-13T11:38:29.585Z,995.33
2019-01-13T11:39:29.630Z,995.39
2019-01-13T11:40:29.689Z,995.53
2019-01-13T11:41:29.768Z,995.40
2019-01-13T11:42:29.836Z,995.41
2019-01-13T11:43:29.909Z,995.27
2019-01-13T11:44:29.995Z,995.34
2019-01-13T11:45:30.481Z,995.23
2019-01-13T11:46:30.560Z,995.14
2019-01-13T11:47:30.643Z,995.21
2019-01-13T11:48:30.730Z,995.07
2019-01-13T11:49:30.823Z,995.07
2019-01-13T11:50:30.957Z,994.98
2019-01-13T11:51:30.948Z,994.99
2019-01-13T11:52:31.288Z,994.98
2019-01-13T11:53:31.773Z,995.02
2019-01-13T11:54:32.099Z,994.92
2019-01-13T11:55:32.370Z,994.97
2019-01-13T11:56:32.862Z,994.82
2019-01-13T11:57:33.116Z,994.81
2019-01-13T11:58:33.373Z,994.80
2019-01-13T11:59:33.640Z,994.79
2019-01-13T12:00:33.920Z,994.80
2019-01-13T12:01:34.406Z,994.83
2019-01-13T12:02:34.170Z,994.80
2019-01-13T12:03:34.436Z,994.84
2019-01-13T12:04:34.700Z,994.83
2019-01-13T12:05:35.236Z,994.83
2019-01-13T12:06:34.991Z,994.78
2019-01-13T12:07:35.470Z,994.74
2019-01-13T12:08:35.725Z,994.71
2019-01-13T12:09:36.194Z,994.67
2019-01-13T12:10:36.464Z,994.62
2019-01-13T12:11:36.741Z,994.58
2019-01-13T12:12:37.167Z,994.54
2019-01-13T12:13:37.681Z,994.52
2019-01-13T12:14:37.540Z,994.38
2019-01-13T12:15:38.171Z,994.45
2019-01-13T12:16:37.984Z,994.43
2019-01-13T12:17:38.280Z,994.44
2019-01-13T12:18:40.623Z,994.52
2019-01-13T12:19:38.900Z,994.48
2019-01-13T12:20:39.331Z,994.57
2019-01-13T12:21:39.850Z,994.58
2019-01-13T12:23:40.306Z,994.67
2019-01-13T12:24:40.923Z,994.57